Red Lake, Texas
Current Conditions -  °F | °C
As of 4:35 AM on Monday 22 Dec 2014 (Local Time) from KPSN Reporting Station
Overcast Overcast  
Wind Chill: 55°   Ceiling: 900
Heat Index: 55°   Visibility: 7mi
Dew Point: 53°   Wind: 12mph
Humidity: 92%   Direction: 160°SSE
Pressure: 29.72"   Gusts: 16mph
Location:  31.5818°N, 95.8921°W
Report Text: KPSN 221035Z AUTO 16010G14KT 7SM BKN009 OVC013 12/11 A2972 RMK AO2 T01300118
Loading
Personal Weather Stations






























Interactive Weather Map New forecast layout! Learn more

10-Day Weather Forecast

Advertisements
Track Severe Weather on mobile